• Join FlightAware (Why Join?)
  • Login
  • US Flag 
Rudolph Flight #1: Scheduled 
07:54PM EST


 

Airport Tracker/Info


-or-


 

Live Flight TrackerFlight Track Log ✈ SWA2272 ✈ 12-May-2013 ✈ KBUR - KDEN

Flight Track Log - Related Links

Times and Time Zones

All times are in EDT time to prevent confusion due to time zone crossing. See the SWA2272 flight status page for this flight to view local times or setup timezone preferences in your user account.

Time Position Orientation Groundspeed Altitude Reporting Facility
EDT Latitude Longitude Course Direction KTS MPH feet Rate Location/Type
01:40PM 34.1808 -118.3564 222° Southwest 163 188 39,000  Level Los Angeles Center
01:41PM 34.1456 -118.3944 222° Southwest 190 219 3,600 -15,540 Descending Los Angeles Center
01:42PM 34.1428 -118.4611 267° West 240 276 6,900 3,480 Climbing Los Angeles Center
01:43PM 34.2186 -118.4428 11° North 241 277 10,800 2,400 Climbing Los Angeles Center
01:44PM 34.3025 -118.4047 21° North 312 359 11,900 2,580 Climbing Los Angeles Center
01:45PM 34.4003 -118.3617 20° North 369 425 16,200 2,820 Climbing Los Angeles Center
01:46PM 34.4528 -118.2608 58° Northeast 375 432 17,800 2,040 Climbing Los Angeles Center
01:47PM 34.4906 -118.1406 69° East 396 456 20,500 2,640 Climbing Los Angeles Center
01:49PM 34.5389 -117.9869 69° East 409 471 23,400 2,400 Climbing Los Angeles Center
01:50PM 34.5786 -117.8544 70° East 419 482 25,500 1,980 Climbing Los Angeles Center
01:51PM 34.6406 -117.7289 59° Northeast 435 501 27,500 2,040 Climbing Los Angeles Center
01:52PM 34.7083 -117.6103 55° Northeast 433 498 29,800 1,680 Climbing Los Angeles Center
01:53PM 34.7764 -117.4919 55° Northeast 432 497 31,000 540 Climbing Los Angeles Center
01:54PM 34.8578 -117.3489 55° Northeast 435 501 31,000 720 Level Los Angeles Center
01:55PM 34.9253 -117.2308 55° Northeast 431 496 32,500 1,740 Climbing Los Angeles Center
01:56PM 34.9917 -117.1158 55° Northeast 420 483 34,600 1,740 Climbing Los Angeles Center
01:57PM 35.0558 -117.0036 55° Northeast 409 471 36,100 1,380 Climbing Los Angeles Center
01:58PM 35.1206 -116.8886 55° Northeast 412 474 37,500 1,380 Climbing Los Angeles Center
01:59PM 35.1969 -116.7533 55° Northeast 405 466 39,000 1,260 Climbing Los Angeles Center
02:00PM 35.2625 -116.6417 54° Northeast 403 464 40,200 960 Climbing Los Angeles Center
02:01PM 35.3256 -116.5281 56° Northeast 405 466 41,000 360 Climbing Los Angeles Center
02:02PM 35.3883 -116.4175 55° Northeast 399 459 41,000  Level Los Angeles Center
02:03PM 35.4511 -116.3056 55° Northeast 399 459 41,000  Level Los Angeles Center
02:04PM 35.5264 -116.1692 56° Northeast 403 464 41,000  Level Los Angeles Center
02:05PM 35.5897 -116.0564 55° Northeast 402 463 41,000  Level Los Angeles Center
02:06PM 35.6519 -115.9439 56° Northeast 400 460 41,000  Level Los Angeles Center
02:07PM 35.7125 -115.8342 56° Northeast 392 451 41,000  Level Los Angeles Center
02:08PM 35.7742 -115.7242 55° Northeast 389 448 41,000  Level Los Angeles Center
02:09PM 35.8475 -115.5889 56° Northeast 395 455 41,000  Level Los Angeles Center
02:10PM 35.9075 -115.4778 56° Northeast 394 453 41,000  Level Los Angeles Center
02:11PM 35.9692 -115.3653 56° Northeast 397 457 41,000  Level Los Angeles Center
02:12PM 36.0292 -115.2542 56° Northeast 391 450 41,000  Level Los Angeles Center
02:13PM 36.0864 -115.1394 58° Northeast 394 453 41,000  Level Los Angeles Center
02:14PM 36.1331 -114.9872 69° East 397 457 41,000  Level Los Angeles Center
02:15PM 36.1708 -114.8600 70° East 396 456 41,000  Level Los Angeles Center
02:16PM 36.2106 -114.7339 69° East 395 455 41,000  Level Los Angeles Center
02:17PM 36.2472 -114.6058 70° East 396 456 41,000  Level Los Angeles Center
02:19PM 36.2833 -114.4767 71° East 398 458 41,000  Level Los Angeles Center
02:20PM 36.3289 -114.3233 70° East 397 457 41,000  Level Los Angeles Center
02:21PM 36.3653 -114.1919 71° East 403 464 41,000  Level Los Angeles Center
02:22PM 36.4022 -114.0622 70° East 401 461 41,000  Level Los Angeles Center
02:23PM 36.4389 -113.9328 71° East 399 459 41,000  Level Los Angeles Center
02:24PM 36.4767 -113.8022 70° East 402 463 41,000  Level Los Angeles Center
02:25PM 36.5142 -113.6697 71° East 403 464 41,000  Level Los Angeles Center
02:26PM 36.5564 -113.5131 71° East 401 461 41,000  Level Los Angeles Center
02:27PM 36.5931 -113.3828 71° East 400 460 41,000  Level Los Angeles Center
02:28PM 36.6292 -113.2517 71° East 402 463 41,000  Level Los Angeles Center
02:29PM 36.6644 -113.1203 71° East 402 463 41,000  Level Los Angeles Center
02:30PM 36.7011 -112.9897 71° East 402 463 41,000  Level Los Angeles Center
02:31PM 36.7364 -112.8592 71° East 400 460 41,000  Level Los Angeles Center
02:32PM 36.7783 -112.7025 71° East 400 460 41,000  Level Los Angeles Center
02:33PM 36.8133 -112.5714 72° East 400 460 41,000  Level Los Angeles Center
02:34PM 36.8497 -112.4392 71° East 404 465 41,000  Level Los Angeles Center
02:35PM 36.8842 -112.3089 72° East 400 460 41,000  Level Los Angeles Center
02:36PM 36.9186 -112.1772 72° East 400 460 41,000  Level Los Angeles Center
02:37PM 36.9408 -112.0983 71° East 399 459 41,000  Level Denver Center
02:38PM 36.9744 -111.9681 72° East 398 458 41,000  Level Denver Center
02:39PM 37.0094 -111.8375 71° East 397 457 41,000  Level Denver Center
02:40PM 37.0444 -111.7072 71° East 397 457 41,000  Level Denver Center
02:41PM 37.0783 -111.5761 72° East 397 457 41,000  Level Denver Center
02:42PM 37.1317 -111.4339 65° Northeast 381 438 41,000  Level Denver Center
02:43PM 37.1775 -111.3125 65° Northeast 386 444 41,000  Level Denver Center
02:44PM 37.2242 -111.1906 64° Northeast 388 447 41,000  Level Denver Center
02:45PM 37.2708 -111.0694 64° Northeast 388 447 41,000  Level Denver Center
02:46PM 37.3150 -110.9483 65° Northeast 385 443 41,000  Level Denver Center
02:47PM 37.3619 -110.8264 64° Northeast 387 445 41,000  Level Denver Center
02:48PM 37.4069 -110.7036 65° Northeast 387 445 41,000  Level Denver Center
02:49PM 37.4631 -110.5564 64° Northeast 389 448 41,000  Level Denver Center
02:50PM 37.5069 -110.4364 65° Northeast 393 452 41,000  Level Denver Center
02:51PM 37.5517 -110.3172 65° Northeast 393 452 41,000  Level Denver Center
02:52PM 37.6028 -110.1794 65° Northeast 389 448 41,000  Level Denver Center
02:53PM 37.6461 -110.0606 65° Northeast 389 448 41,000  Level Denver Center
02:54PM 37.6978 -109.9203 65° Northeast 394 453 41,000  Level Denver Center
02:55PM 37.7411 -109.8006 65° Northeast 392 451 41,000  Level Denver Center
02:56PM 37.7853 -109.6803 65° Northeast 393 452 41,000  Level Denver Center
02:57PM 37.8358 -109.5411 65° Northeast 390 449 41,000  Level Denver Center
02:58PM 37.8775 -109.4222 66° East 387 445 41,000  Level Denver Center
02:59PM 37.9275 -109.2847 65° Northeast 385 443 41,000  Level Denver Center
03:00PM 37.9689 -109.1683 66° East 380 437 41,000  Level Denver Center
03:01PM 38.0178 -109.0303 66° East 383 441 41,000  Level Denver Center
03:02PM 38.0567 -108.9203 66° East 382 440 41,000  Level Denver Center
03:03PM 38.1061 -108.7786 66° East 389 448 41,000  Level Denver Center
03:04PM 38.1472 -108.6631 66° East 381 438 41,000  Level Denver Center
03:05PM 38.1953 -108.5239 66° East 383 441 41,000  Level Denver Center
03:06PM 38.2361 -108.4061 66° East 380 437 41,000  Level Denver Center
03:07PM 38.2839 -108.2700 66° East 379 436 41,000  Level Denver Center
03:08PM 38.3250 -108.1517 66° East 383 441 41,000  Level Denver Center
03:09PM 38.3719 -108.0139 66° East 380 437 41,000  Level Denver Center
03:11PM 38.4125 -107.8953 66° East 382 440 41,000 -540 Level Denver Center
03:12PM 38.4594 -107.7583 66° East 380 437 40,000 -1,200 Descending Denver Center
03:13PM 38.5017 -107.6344 66° East 393 452 38,600 -1,560 Descending Denver Center
03:14PM 38.5431 -107.5097 67° East 399 459 36,800 -1,920 Descending Denver Center
03:15PM 38.5917 -107.3639 67° East 401 461 34,700 -1,980 Descending Denver Center
03:16PM 38.6344 -107.2353 67° East 409 471 32,800 -1,800 Descending Denver Center
03:17PM 38.6864 -107.0817 67° East 418 481 31,100 -900 Descending Denver Center
03:18PM 38.7311 -106.9447 67° East 418 481 31,000 -60 Descending Denver Center
03:19PM 38.7758 -106.8072 67° East 418 481 31,000  Level Denver Center
03:20PM 38.8214 -106.6700 67° East 421 484 31,000  Level Denver Center
03:21PM 38.8669 -106.5319 67° East 422 486 31,000  Level Denver Center
03:22PM 38.9167 -106.3775 67° East 422 486 31,000  Level Denver Center
03:23PM 38.9667 -106.2219 67° East 423 487 31,000  Level Denver Center
03:24PM 39.0103 -106.0867 67° East 424 488 31,000 -540 Level Denver Center
03:25PM 39.0547 -105.9469 68° East 424 488 30,000 -2,040 Descending Denver Center
03:26PM 39.1033 -105.7936 68° East 424 488 26,800 -3,000 Descending Denver Center
03:27PM 39.1469 -105.6569 68° East 430 495 23,900 -2,760 Descending Denver Center
03:28PM 39.1892 -105.5253 67° East 424 488 21,100 -2,220 Descending Denver Center
03:29PM 39.2378 -105.3694 68° East 406 467 19,400 -1,620 Descending Denver Center
03:30PM 39.2756 -105.2175 72° East 413 475 17,900 -1,800 Descending Denver Center
03:31PM 39.3011 -105.0708 77° East 420 483 15,800 -1,800 Descending Denver Center
03:32PM 39.3275 -104.9328 76° East 404 465 14,300 -1,260 Descending Denver Center
03:33PM 39.3558 -104.8036 74° East 349 402 13,300 -1,140 Descending Denver Center
03:34PM 39.4136 -104.7297 45° Northeast 305 351 12,000 -1,320 Descending Denver Center
03:35PM 39.4983 -104.7019 14° North 289 333 10,600 -1,080 Descending Denver Center
03:36PM 39.5642 -104.6781 16° North 245 282 9,800 -1,140 Descending Denver Center
03:37PM 39.6256 -104.6611 12° North 227 261 8,300 -1,380 Descending Denver Center
03:38PM 39.6911 -104.6625 359° North 220 253 7,000 -660 Descending Denver Center
03:39PM 39.7500 -104.6619 360° North 214 246 7,000 -480 Level Denver Center
03:40PM 39.7978 -104.6614 North 163 188 6,100 -780 Descending Denver Center
03:41PM 39.8364 -104.6606 North 153 176 5,400 -720 Descending Denver Center
03:43PM 39.8500 -104.6667 North  Level FlightAware Approximate
03:50PM 39.8617 -104.6732 North  Level Estimated
03:51PM 39.8617 -104.6732 North  Level Estimated
03:52PM 39.8617 -104.6732 North  Level Estimated